sensor_id;sensor_type;location;lat;lon;timestamp;temperature;humidity
6964;DHT22;3522;50.856;7.278;2023-08-21T00:00:14;20.60;99.90
6964;DHT22;3522;50.856;7.278;2023-08-21T00:02:42;20.50;99.90
6964;DHT22;3522;50.856;7.278;2023-08-21T00:05:09;20.40;99.90
6964;DHT22;3522;50.856;7.278;2023-08-21T00:07:36;20.40;99.90
6964;DHT22;3522;50.856;7.278;2023-08-21T00:10:02;20.40;99.90
6964;DHT22;3522;50.856;7.278;2023-08-21T00:12:29;20.40;99.90
6964;DHT22;3522;50.856;7.278;2023-08-21T00:14:56;20.40;99.90
6964;DHT22;3522;50.856;7.278;2023-08-21T00:17:22;20.40;99.90
6964;DHT22;3522;50.856;7.278;2023-08-21T00:19:50;20.50;99.90
6964;DHT22;3522;50.856;7.278;2023-08-21T00:22:17;20.50;99.90
6964;DHT22;3522;50.856;7.278;2023-08-21T00:24:43;20.50;99.90
6964;DHT22;3522;50.856;7.278;2023-08-21T00:27:10;20.40;99.90
6964;DHT22;3522;50.856;7.278;2023-08-21T00:29:36;20.50;99.90
6964;DHT22;3522;50.856;7.278;2023-08-21T00:32:03;20.40;99.90
6964;DHT22;3522;50.856;7.278;2023-08-21T00:34:32;20.40;99.90
6964;DHT22;3522;50.856;7.278;2023-08-21T00:36:59;20.40;99.90
6964;DHT22;3522;50.856;7.278;2023-08-21T00:39:26;20.40;99.90
6964;DHT22;3522;50.856;7.278;2023-08-21T00:41:53;20.40;99.90
6964;DHT22;3522;50.856;7.278;2023-08-21T00:44:19;20.40;99.90
6964;DHT22;3522;50.856;7.278;2023-08-21T00:46:46;20.40;99.90
6964;DHT22;3522;50.856;7.278;2023-08-21T00:49:12;20.30;99.90
6964;DHT22;3522;50.856;7.278;2023-08-21T00:51:39;20.30;99.90
6964;DHT22;3522;50.856;7.278;2023-08-21T00:54:07;20.30;99.90
6964;DHT22;3522;50.856;7.278;2023-08-21T00:56:34;20.30;99.90
6964;DHT22;3522;50.856;7.278;2023-08-21T00:59:00;20.20;99.90
6964;DHT22;3522;50.856;7.278;2023-08-21T01:01:27;20.20;99.90
6964;DHT22;3522;50.856;7.278;2023-08-21T01:03:54;20.20;99.90
6964;DHT22;3522;50.856;7.278;2023-08-21T01:06:21;20.20;99.90
6964;DHT22;3522;50.856;7.278;2023-08-21T01:08:50;20.20;99.90
6964;DHT22;3522;50.856;7.278;2023-08-21T01:11:21;20.20;99.90
6964;DHT22;3522;50.856;7.278;2023-08-21T01:13:51;20.20;99.90
6964;DHT22;3522;50.856;7.278;2023-08-21T01:16:20;20.20;99.90
6964;DHT22;3522;50.856;7.278;2023-08-21T01:18:47;20.30;99.90
6964;DHT22;3522;50.856;7.278;2023-08-21T01:21:14;20.30;99.90
6964;DHT22;3522;50.856;7.278;2023-08-21T01:23:42;20.30;99.90
6964;DHT22;3522;50.856;7.278;2023-08-21T01:26:09;20.30;99.90
6964;DHT22;3522;50.856;7.278;2023-08-21T01:28:35;20.30;99.90
6964;DHT22;3522;50.856;7.278;2023-08-21T01:31:03;20.30;99.90
6964;DHT22;3522;50.856;7.278;2023-08-21T01:33:32;20.20;99.90
6964;DHT22;3522;50.856;7.278;2023-08-21T01:35:59;20.10;99.90
6964;DHT22;3522;50.856;7.278;2023-08-21T01:38:29;20.00;99.90
6964;DHT22;3522;50.856;7.278;2023-08-21T01:40:57;19.90;99.90
6964;DHT22;3522;50.856;7.278;2023-08-21T01:43:24;19.80;99.90
6964;DHT22;3522;50.856;7.278;2023-08-21T01:45:50;19.70;99.90
6964;DHT22;3522;50.856;7.278;2023-08-21T01:48:17;19.70;99.90
6964;DHT22;3522;50.856;7.278;2023-08-21T01:50:43;19.70;99.90
6964;DHT22;3522;50.856;7.278;2023-08-21T01:53:10;19.70;99.90
6964;DHT22;3522;50.856;7.278;2023-08-21T01:55:36;19.70;99.90
6964;DHT22;3522;50.856;7.278;2023-08-21T01:58:04;19.70;99.90
6964;DHT22;3522;50.856;7.278;2023-08-21T02:00:31;19.70;99.90
6964;DHT22;3522;50.856;7.278;2023-08-21T02:02:57;19.70;99.90
6964;DHT22;3522;50.856;7.278;2023-08-21T02:05:24;19.60;99.90
6964;DHT22;3522;50.856;7.278;2023-08-21T02:07:50;19.60;99.90
6964;DHT22;3522;50.856;7.278;2023-08-21T02:10:17;19.60;99.90
6964;DHT22;3522;50.856;7.278;2023-08-21T02:12:44;19.60;99.90
6964;DHT22;3522;50.856;7.278;2023-08-21T02:15:12;19.60;99.90
6964;DHT22;3522;50.856;7.278;2023-08-21T02:17:39;19.60;99.90
6964;DHT22;3522;50.856;7.278;2023-08-21T02:20:08;19.60;99.90
6964;DHT22;3522;50.856;7.278;2023-08-21T02:22:35;19.60;99.90
6964;DHT22;3522;50.856;7.278;2023-08-21T02:25:01;19.60;99.90
6964;DHT22;3522;50.856;7.278;2023-08-21T02:27:29;19.60;99.90
6964;DHT22;3522;50.856;7.278;2023-08-21T02:29:55;19.60;99.90
6964;DHT22;3522;50.856;7.278;2023-08-21T02:32:23;19.50;99.90
6964;DHT22;3522;50.856;7.278;2023-08-21T02:34:50;19.50;99.90
6964;DHT22;3522;50.856;7.278;2023-08-21T02:37:16;19.50;99.90
6964;DHT22;3522;50.856;7.278;2023-08-21T02:39:43;19.50;99.90
6964;DHT22;3522;50.856;7.278;2023-08-21T02:42:09;19.50;99.90
6964;DHT22;3522;50.856;7.278;2023-08-21T02:44:36;19.50;99.90
6964;DHT22;3522;50.856;7.278;2023-08-21T02:47:02;19.50;99.90
6964;DHT22;3522;50.856;7.278;2023-08-21T02:49:30;19.40;99.90
6964;DHT22;3522;50.856;7.278;2023-08-21T02:51:57;19.40;99.90
6964;DHT22;3522;50.856;7.278;2023-08-21T02:54:24;19.40;99.90
6964;DHT22;3522;50.856;7.278;2023-08-21T02:56:50;19.40;99.90
6964;DHT22;3522;50.856;7.278;2023-08-21T02:59:17;19.40;99.90
6964;DHT22;3522;50.856;7.278;2023-08-21T03:01:43;19.40;99.90
6964;DHT22;3522;50.856;7.278;2023-08-21T03:04:10;19.30;99.90
6964;DHT22;3522;50.856;7.278;2023-08-21T03:06:38;19.30;99.90
6964;DHT22;3522;50.856;7.278;2023-08-21T03:09:04;19.30;99.90
6964;DHT22;3522;50.856;7.278;2023-08-21T03:11:31;19.30;99.90
6964;DHT22;3522;50.856;7.278;2023-08-21T03:13:57;19.30;99.90
6964;DHT22;3522;50.856;7.278;2023-08-21T03:16:24;19.30;99.90
6964;DHT22;3522;50.856;7.278;2023-08-21T03:18:54;19.30;99.90
6964;DHT22;3522;50.856;7.278;2023-08-21T03:21:21;19.30;99.90
6964;DHT22;3522;50.856;7.278;2023-08-21T03:23:51;19.20;99.90
6964;DHT22;3522;50.856;7.278;2023-08-21T03:26:17;19.20;99.90
6964;DHT22;3522;50.856;7.278;2023-08-21T03:28:44;19.20;99.90
6964;DHT22;3522;50.856;7.278;2023-08-21T03:31:10;19.20;99.90
6964;DHT22;3522;50.856;7.278;2023-08-21T03:33:37;19.20;99.90
6964;DHT22;3522;50.856;7.278;2023-08-21T03:36:04;19.20;99.90
6964;DHT22;3522;50.856;7.278;2023-08-21T03:38:30;19.20;99.90
6964;DHT22;3522;50.856;7.278;2023-08-21T03:40:58;19.20;99.90
6964;DHT22;3522;50.856;7.278;2023-08-21T03:43:25;19.20;99.90
6964;DHT22;3522;50.856;7.278;2023-08-21T03:45:51;19.10;99.90
6964;DHT22;3522;50.856;7.278;2023-08-21T03:48:18;19.20;99.90
6964;DHT22;3522;50.856;7.278;2023-08-21T03:50:44;19.10;99.90
6964;DHT22;3522;50.856;7.278;2023-08-21T03:53:11;19.10;99.90
6964;DHT22;3522;50.856;7.278;2023-08-21T03:55:37;19.10;99.90
6964;DHT22;3522;50.856;7.278;2023-08-21T03:58:05;19.20;99.90
6964;DHT22;3522;50.856;7.278;2023-08-21T04:00:32;19.20;99.90
6964;DHT22;3522;50.856;7.278;2023-08-21T04:02:58;19.20;99.90
6964;DHT22;3522;50.856;7.278;2023-08-21T04:05:25;19.10;99.90
6964;DHT22;3522;50.856;7.278;2023-08-21T04:07:51;19.10;99.90
6964;DHT22;3522;50.856;7.278;2023-08-21T04:10:18;19.10;99.90
6964;DHT22;3522;50.856;7.278;2023-08-21T04:12:45;19.10;99.90
6964;DHT22;3522;50.856;7.278;2023-08-21T04:15:12;19.10;99.90
6964;DHT22;3522;50.856;7.278;2023-08-21T04:17:39;19.10;99.90
6964;DHT22;3522;50.856;7.278;2023-08-21T04:20:06;19.10;99.90
6964;DHT22;3522;50.856;7.278;2023-08-21T04:22:33;19.10;99.90
6964;DHT22;3522;50.856;7.278;2023-08-21T04:24:59;19.10;99.90
6964;DHT22;3522;50.856;7.278;2023-08-21T04:27:26;19.10;99.90
6964;DHT22;3522;50.856;7.278;2023-08-21T04:29:53;19.30;99.90
6964;DHT22;3522;50.856;7.278;2023-08-21T04:32:21;19.10;99.90
6964;DHT22;3522;50.856;7.278;2023-08-21T04:34:47;19.10;99.90
6964;DHT22;3522;50.856;7.278;2023-08-21T04:37:14;19.00;99.90
6964;DHT22;3522;50.856;7.278;2023-08-21T04:39:41;19.00;99.90
6964;DHT22;3522;50.856;7.278;2023-08-21T04:42:07;19.00;99.90
6964;DHT22;3522;50.856;7.278;2023-08-21T04:44:34;19.00;99.90
6964;DHT22;3522;50.856;7.278;2023-08-21T04:49:43;19.00;99.90
6964;DHT22;3522;50.856;7.278;2023-08-21T04:52:10;19.00;99.90
6964;DHT22;3522;50.856;7.278;2023-08-21T04:54:36;19.00;99.90
6964;DHT22;3522;50.856;7.278;2023-08-21T04:57:03;19.00;99.90
6964;DHT22;3522;50.856;7.278;2023-08-21T04:59:29;18.80;99.90
6964;DHT22;3522;50.856;7.278;2023-08-21T05:01:56;18.80;99.90
6964;DHT22;3522;50.856;7.278;2023-08-21T05:04:23;18.70;99.90
6964;DHT22;3522;50.856;7.278;2023-08-21T05:06:50;18.70;99.90
6964;DHT22;3522;50.856;7.278;2023-08-21T05:09:17;18.70;99.90
6964;DHT22;3522;50.856;7.278;2023-08-21T05:11:44;18.70;99.90
6964;DHT22;3522;50.856;7.278;2023-08-21T05:14:10;18.70;99.90
6964;DHT22;3522;50.856;7.278;2023-08-21T05:16:37;18.70;99.90
6964;DHT22;3522;50.856;7.278;2023-08-21T05:19:03;18.80;99.90
6964;DHT22;3522;50.856;7.278;2023-08-21T05:21:30;18.80;99.90
6964;DHT22;3522;50.856;7.278;2023-08-21T05:23:58;18.70;99.90
6964;DHT22;3522;50.856;7.278;2023-08-21T05:26:24;18.70;99.90
6964;DHT22;3522;50.856;7.278;2023-08-21T05:28:51;18.70;99.90
6964;DHT22;3522;50.856;7.278;2023-08-21T05:31:18;18.70;99.90
6964;DHT22;3522;50.856;7.278;2023-08-21T05:33:44;18.70;99.90
6964;DHT22;3522;50.856;7.278;2023-08-21T05:36:11;18.80;99.90
6964;DHT22;3522;50.856;7.278;2023-08-21T05:38:38;19.00;99.90
6964;DHT22;3522;50.856;7.278;2023-08-21T05:41:06;19.10;99.90
6964;DHT22;3522;50.856;7.278;2023-08-21T05:43:32;19.10;99.90
6964;DHT22;3522;50.856;7.278;2023-08-21T05:45:59;19.20;99.90
6964;DHT22;3522;50.856;7.278;2023-08-21T05:48:26;19.30;99.90
6964;DHT22;3522;50.856;7.278;2023-08-21T05:50:52;19.40;99.90
6964;DHT22;3522;50.856;7.278;2023-08-21T05:53:19;19.50;99.90
6964;DHT22;3522;50.856;7.278;2023-08-21T05:55:46;19.60;99.90
6964;DHT22;3522;50.856;7.278;2023-08-21T05:58:14;19.70;99.90
6964;DHT22;3522;50.856;7.278;2023-08-21T06:00:41;19.70;99.90
6964;DHT22;3522;50.856;7.278;2023-08-21T06:03:07;19.90;99.90
6964;DHT22;3522;50.856;7.278;2023-08-21T06:05:34;20.00;99.90
6964;DHT22;3522;50.856;7.278;2023-08-21T06:08:00;20.10;99.90
6964;DHT22;3522;50.856;7.278;2023-08-21T06:10:27;20.30;99.90
6964;DHT22;3522;50.856;7.278;2023-08-21T06:12:54;20.50;99.90
6964;DHT22;3522;50.856;7.278;2023-08-21T06:15:22;20.70;99.90
6964;DHT22;3522;50.856;7.278;2023-08-21T06:17:48;20.90;99.90
6964;DHT22;3522;50.856;7.278;2023-08-21T06:20:15;21.10;99.90
6964;DHT22;3522;50.856;7.278;2023-08-21T06:22:41;21.20;99.90
6964;DHT22;3522;50.856;7.278;2023-08-21T06:25:08;21.50;99.90
6964;DHT22;3522;50.856;7.278;2023-08-21T06:27:34;21.80;99.90
6964;DHT22;3522;50.856;7.278;2023-08-21T06:30:01;22.00;99.90
6964;DHT22;3522;50.856;7.278;2023-08-21T06:32:29;22.30;99.90
6964;DHT22;3522;50.856;7.278;2023-08-21T06:34:56;22.40;99.90
6964;DHT22;3522;50.856;7.278;2023-08-21T06:37:22;22.50;99.90
6964;DHT22;3522;50.856;7.278;2023-08-21T06:39:50;22.60;99.90
6964;DHT22;3522;50.856;7.278;2023-08-21T06:42:16;22.70;99.90
6964;DHT22;3522;50.856;7.278;2023-08-21T06:44:43;23.00;99.90
6964;DHT22;3522;50.856;7.278;2023-08-21T06:47:09;23.00;99.90
6964;DHT22;3522;50.856;7.278;2023-08-21T06:49:37;23.20;99.90
6964;DHT22;3522;50.856;7.278;2023-08-21T06:52:04;23.30;99.90
6964;DHT22;3522;50.856;7.278;2023-08-21T06:54:31;23.40;99.90
6964;DHT22;3522;50.856;7.278;2023-08-21T06:56:57;23.60;99.90
6964;DHT22;3522;50.856;7.278;2023-08-21T06:59:24;23.90;99.90
6964;DHT22;3522;50.856;7.278;2023-08-21T07:01:51;24.20;99.90
6964;DHT22;3522;50.856;7.278;2023-08-21T07:04:17;24.50;99.90
6964;DHT22;3522;50.856;7.278;2023-08-21T07:06:45;24.80;99.90
6964;DHT22;3522;50.856;7.278;2023-08-21T07:09:12;25.20;99.90
6964;DHT22;3522;50.856;7.278;2023-08-21T07:11:39;25.50;99.90
6964;DHT22;3522;50.856;7.278;2023-08-21T07:14:05;25.80;99.90
6964;DHT22;3522;50.856;7.278;2023-08-21T07:16:32;25.90;99.90
6964;DHT22;3522;50.856;7.278;2023-08-21T07:18:58;26.20;99.90
6964;DHT22;3522;50.856;7.278;2023-08-21T07:21:25;26.40;99.90
6964;DHT22;3522;50.856;7.278;2023-08-21T07:23:53;26.50;99.90
6964;DHT22;3522;50.856;7.278;2023-08-21T07:26:19;26.60;99.90
6964;DHT22;3522;50.856;7.278;2023-08-21T07:28:47;26.80;99.90
6964;DHT22;3522;50.856;7.278;2023-08-21T07:31:13;26.80;99.90
6964;DHT22;3522;50.856;7.278;2023-08-21T07:33:40;26.80;99.90
6964;DHT22;3522;50.856;7.278;2023-08-21T07:36:06;26.90;99.90
6964;DHT22;3522;50.856;7.278;2023-08-21T07:38:33;27.00;99.90
6964;DHT22;3522;50.856;7.278;2023-08-21T07:41:04;26.70;99.90
6964;DHT22;3522;50.856;7.278;2023-08-21T07:43:33;26.80;99.90
6964;DHT22;3522;50.856;7.278;2023-08-21T07:46:01;27.20;99.90
6964;DHT22;3522;50.856;7.278;2023-08-21T07:48:28;27.30;99.90
6964;DHT22;3522;50.856;7.278;2023-08-21T07:50:54;27.40;99.90
6964;DHT22;3522;50.856;7.278;2023-08-21T07:53:21;27.70;99.90
6964;DHT22;3522;50.856;7.278;2023-08-21T07:55:48;28.00;99.90
6964;DHT22;3522;50.856;7.278;2023-08-21T07:58:16;27.60;99.90
6964;DHT22;3522;50.856;7.278;2023-08-21T08:00:43;27.60;99.90
6964;DHT22;3522;50.856;7.278;2023-08-21T08:03:09;27.70;99.90
6964;DHT22;3522;50.856;7.278;2023-08-21T08:05:36;27.80;99.90
6964;DHT22;3522;50.856;7.278;2023-08-21T08:08:03;28.00;99.90
6964;DHT22;3522;50.856;7.278;2023-08-21T08:10:29;28.30;99.90
6964;DHT22;3522;50.856;7.278;2023-08-21T08:12:56;28.40;99.90
6964;DHT22;3522;50.856;7.278;2023-08-21T08:15:24;28.60;99.90
6964;DHT22;3522;50.856;7.278;2023-08-21T08:17:50;28.90;99.90
6964;DHT22;3522;50.856;7.278;2023-08-21T08:20:17;29.20;99.90
6964;DHT22;3522;50.856;7.278;2023-08-21T08:22:44;29.10;99.90
6964;DHT22;3522;50.856;7.278;2023-08-21T08:25:10;28.80;99.90
6964;DHT22;3522;50.856;7.278;2023-08-21T08:27:37;28.60;99.90
6964;DHT22;3522;50.856;7.278;2023-08-21T08:30:03;28.60;99.90
6964;DHT22;3522;50.856;7.278;2023-08-21T08:32:32;28.80;99.90
6964;DHT22;3522;50.856;7.278;2023-08-21T08:34:58;28.90;99.90
6964;DHT22;3522;50.856;7.278;2023-08-21T08:37:25;29.10;99.90
6964;DHT22;3522;50.856;7.278;2023-08-21T08:39:51;29.30;99.90
6964;DHT22;3522;50.856;7.278;2023-08-21T08:42:18;29.50;99.90
6964;DHT22;3522;50.856;7.278;2023-08-21T08:44:44;29.70;99.90
6964;DHT22;3522;50.856;7.278;2023-08-21T08:47:11;29.70;99.90
6964;DHT22;3522;50.856;7.278;2023-08-21T08:49:40;29.50;99.90
6964;DHT22;3522;50.856;7.278;2023-08-21T08:52:06;29.60;99.90
6964;DHT22;3522;50.856;7.278;2023-08-21T08:54:33;29.50;99.90
6964;DHT22;3522;50.856;7.278;2023-08-21T08:57:03;29.80;99.90
6964;DHT22;3522;50.856;7.278;2023-08-21T08:59:29;30.00;99.90
6964;DHT22;3522;50.856;7.278;2023-08-21T09:01:56;30.20;99.90
6964;DHT22;3522;50.856;7.278;2023-08-21T09:04:23;30.00;99.90
6964;DHT22;3522;50.856;7.278;2023-08-21T09:06:50;30.00;99.90
6964;DHT22;3522;50.856;7.278;2023-08-21T09:09:17;30.40;99.90
6964;DHT22;3522;50.856;7.278;2023-08-21T09:11:44;30.60;99.90
6964;DHT22;3522;50.856;7.278;2023-08-21T09:14:12;30.70;99.90
6964;DHT22;3522;50.856;7.278;2023-08-21T09:16:56;30.60;99.90
6964;DHT22;3522;50.856;7.278;2023-08-21T09:19:23;30.70;99.90
6964;DHT22;3522;50.856;7.278;2023-08-21T09:21:51;30.60;99.90
6964;DHT22;3522;50.856;7.278;2023-08-21T09:24:18;30.60;99.90
6964;DHT22;3522;50.856;7.278;2023-08-21T09:26:44;30.80;99.90
6964;DHT22;3522;50.856;7.278;2023-08-21T09:29:11;30.90;99.90
6964;DHT22;3522;50.856;7.278;2023-08-21T09:31:37;30.80;99.90
6964;DHT22;3522;50.856;7.278;2023-08-21T09:34:04;30.80;99.90
6964;DHT22;3522;50.856;7.278;2023-08-21T09:36:31;30.80;99.90
6964;DHT22;3522;50.856;7.278;2023-08-21T09:38:59;30.80;99.90
6964;DHT22;3522;50.856;7.278;2023-08-21T09:41:26;30.40;99.90
6964;DHT22;3522;50.856;7.278;2023-08-21T09:43:53;30.00;99.90
6964;DHT22;3522;50.856;7.278;2023-08-21T09:46:25;29.90;99.90
6964;DHT22;3522;50.856;7.278;2023-08-21T09:48:52;30.00;99.90
6964;DHT22;3522;50.856;7.278;2023-08-21T09:51:19;30.20;99.90
6964;DHT22;3522;50.856;7.278;2023-08-21T09:53:45;30.20;99.90
6964;DHT22;3522;50.856;7.278;2023-08-21T09:56:14;30.10;99.90
6964;DHT22;3522;50.856;7.278;2023-08-21T09:58:41;30.00;99.90
6964;DHT22;3522;50.856;7.278;2023-08-21T10:01:09;30.20;99.90
6964;DHT22;3522;50.856;7.278;2023-08-21T10:03:39;30.50;99.90
6964;DHT22;3522;50.856;7.278;2023-08-21T10:06:07;30.60;99.90
6964;DHT22;3522;50.856;7.278;2023-08-21T10:08:36;30.80;99.90
6964;DHT22;3522;50.856;7.278;2023-08-21T10:11:04;30.80;99.90
6964;DHT22;3522;50.856;7.278;2023-08-21T10:13:32;31.10;99.90
6964;DHT22;3522;50.856;7.278;2023-08-21T10:16:00;31.20;99.90
6964;DHT22;3522;50.856;7.278;2023-08-21T10:18:29;31.10;99.90
6964;DHT22;3522;50.856;7.278;2023-08-21T10:20:56;31.00;99.90
6964;DHT22;3522;50.856;7.278;2023-08-21T10:23:36;31.20;99.90
6964;DHT22;3522;50.856;7.278;2023-08-21T10:26:05;31.30;99.90
6964;DHT22;3522;50.856;7.278;2023-08-21T10:28:42;31.30;99.90
6964;DHT22;3522;50.856;7.278;2023-08-21T10:31:25;31.30;99.90
6964;DHT22;3522;50.856;7.278;2023-08-21T10:33:51;31.30;99.90
6964;DHT22;3522;50.856;7.278;2023-08-21T10:38:59;31.40;99.90
6964;DHT22;3522;50.856;7.278;2023-08-21T10:41:26;31.40;99.90
6964;DHT22;3522;50.856;7.278;2023-08-21T10:43:54;31.60;99.90
6964;DHT22;3522;50.856;7.278;2023-08-21T10:46:20;31.60;99.90
6964;DHT22;3522;50.856;7.278;2023-08-21T10:48:47;31.50;99.90
6964;DHT22;3522;50.856;7.278;2023-08-21T10:51:14;31.70;99.90
6964;DHT22;3522;50.856;7.278;2023-08-21T10:53:42;31.70;99.90
6964;DHT22;3522;50.856;7.278;2023-08-21T10:56:09;31.30;99.90
6964;DHT22;3522;50.856;7.278;2023-08-21T10:58:37;31.20;99.90
6964;DHT22;3522;50.856;7.278;2023-08-21T11:01:06;31.10;99.90
6964;DHT22;3522;50.856;7.278;2023-08-21T11:03:33;31.10;99.90
6964;DHT22;3522;50.856;7.278;2023-08-21T11:06:00;31.00;99.90
6964;DHT22;3522;50.856;7.278;2023-08-21T11:08:27;30.80;99.90
6964;DHT22;3522;50.856;7.278;2023-08-21T11:10:54;30.70;99.90
6964;DHT22;3522;50.856;7.278;2023-08-21T11:13:22;30.80;99.90
6964;DHT22;3522;50.856;7.278;2023-08-21T11:15:50;30.80;99.90
6964;DHT22;3522;50.856;7.278;2023-08-21T11:18:30;30.80;99.90
6964;DHT22;3522;50.856;7.278;2023-08-21T11:21:02;30.90;99.90
6964;DHT22;3522;50.856;7.278;2023-08-21T11:23:31;31.30;99.90
6964;DHT22;3522;50.856;7.278;2023-08-21T11:25:58;31.50;99.90
6964;DHT22;3522;50.856;7.278;2023-08-21T11:28:25;31.60;99.90
6964;DHT22;3522;50.856;7.278;2023-08-21T11:30:51;31.50;99.90
6964;DHT22;3522;50.856;7.278;2023-08-21T11:33:18;31.30;99.90
6964;DHT22;3522;50.856;7.278;2023-08-21T11:35:46;31.40;99.90
6964;DHT22;3522;50.856;7.278;2023-08-21T11:38:16;31.50;99.90
6964;DHT22;3522;50.856;7.278;2023-08-21T11:40:50;31.80;99.90
6964;DHT22;3522;50.856;7.278;2023-08-21T11:43:17;31.90;99.90
6964;DHT22;3522;50.856;7.278;2023-08-21T11:45:45;32.10;99.90
6964;DHT22;3522;50.856;7.278;2023-08-21T11:48:11;32.00;99.90
6964;DHT22;3522;50.856;7.278;2023-08-21T11:50:38;32.00;99.90
6964;DHT22;3522;50.856;7.278;2023-08-21T11:53:06;31.90;99.90
6964;DHT22;3522;50.856;7.278;2023-08-21T11:55:34;31.40;99.90
6964;DHT22;3522;50.856;7.278;2023-08-21T11:58:01;30.90;99.90
6964;DHT22;3522;50.856;7.278;2023-08-21T12:00:29;30.80;99.90
6964;DHT22;3522;50.856;7.278;2023-08-21T12:02:57;30.60;99.90
6964;DHT22;3522;50.856;7.278;2023-08-21T12:05:23;30.60;99.90
6964;DHT22;3522;50.856;7.278;2023-08-21T12:07:50;30.50;99.90
6964;DHT22;3522;50.856;7.278;2023-08-21T12:10:23;30.30;99.90
6964;DHT22;3522;50.856;7.278;2023-08-21T12:12:49;29.90;99.90
6964;DHT22;3522;50.856;7.278;2023-08-21T12:15:16;29.50;99.90
6964;DHT22;3522;50.856;7.278;2023-08-21T12:17:43;29.30;99.90
6964;DHT22;3522;50.856;7.278;2023-08-21T12:20:09;29.30;99.90
6964;DHT22;3522;50.856;7.278;2023-08-21T12:22:37;29.30;99.90
6964;DHT22;3522;50.856;7.278;2023-08-21T12:25:04;29.60;99.90
6964;DHT22;3522;50.856;7.278;2023-08-21T12:27:32;29.90;99.90
6964;DHT22;3522;50.856;7.278;2023-08-21T12:29:58;29.90;99.90
6964;DHT22;3522;50.856;7.278;2023-08-21T12:32:25;29.90;99.90
6964;DHT22;3522;50.856;7.278;2023-08-21T12:34:51;30.00;99.90
6964;DHT22;3522;50.856;7.278;2023-08-21T12:37:18;29.90;99.90
6964;DHT22;3522;50.856;7.278;2023-08-21T12:39:45;29.60;99.90
6964;DHT22;3522;50.856;7.278;2023-08-21T12:42:11;29.60;99.90
6964;DHT22;3522;50.856;7.278;2023-08-21T12:44:39;29.50;99.90
6964;DHT22;3522;50.856;7.278;2023-08-21T12:47:06;29.50;99.90
6964;DHT22;3522;50.856;7.278;2023-08-21T12:49:32;29.70;99.90
6964;DHT22;3522;50.856;7.278;2023-08-21T12:52:00;29.60;99.90
6964;DHT22;3522;50.856;7.278;2023-08-21T12:54:27;29.60;99.90
6964;DHT22;3522;50.856;7.278;2023-08-21T12:56:53;29.80;99.90
6964;DHT22;3522;50.856;7.278;2023-08-21T12:59:21;29.90;99.90
6964;DHT22;3522;50.856;7.278;2023-08-21T13:01:49;29.70;99.90
6964;DHT22;3522;50.856;7.278;2023-08-21T13:04:16;29.30;99.90
6964;DHT22;3522;50.856;7.278;2023-08-21T13:06:43;29.50;99.90
6964;DHT22;3522;50.856;7.278;2023-08-21T13:09:09;29.80;99.90
6964;DHT22;3522;50.856;7.278;2023-08-21T13:11:36;29.90;99.90
6964;DHT22;3522;50.856;7.278;2023-08-21T13:14:02;30.10;99.90
6964;DHT22;3522;50.856;7.278;2023-08-21T13:16:29;30.10;99.90
6964;DHT22;3522;50.856;7.278;2023-08-21T13:18:57;29.90;99.90
6964;DHT22;3522;50.856;7.278;2023-08-21T13:21:23;29.80;99.90
6964;DHT22;3522;50.856;7.278;2023-08-21T13:23:50;29.60;99.90
6964;DHT22;3522;50.856;7.278;2023-08-21T13:26:16;29.60;99.90
6964;DHT22;3522;50.856;7.278;2023-08-21T13:28:43;29.50;99.90
6964;DHT22;3522;50.856;7.278;2023-08-21T13:31:10;29.50;99.90
6964;DHT22;3522;50.856;7.278;2023-08-21T13:33:44;29.20;99.90
6964;DHT22;3522;50.856;7.278;2023-08-21T13:36:12;28.70;99.90
6964;DHT22;3522;50.856;7.278;2023-08-21T13:38:38;28.50;99.90
6964;DHT22;3522;50.856;7.278;2023-08-21T13:41:05;28.70;99.90
6964;DHT22;3522;50.856;7.278;2023-08-21T13:43:31;29.00;99.90
6964;DHT22;3522;50.856;7.278;2023-08-21T13:45:59;29.30;99.90
6964;DHT22;3522;50.856;7.278;2023-08-21T13:48:26;29.90;99.90
6964;DHT22;3522;50.856;7.278;2023-08-21T13:50:52;30.00;99.90
6964;DHT22;3522;50.856;7.278;2023-08-21T13:53:20;30.10;99.90
6964;DHT22;3522;50.856;7.278;2023-08-21T13:55:47;29.90;99.90
6964;DHT22;3522;50.856;7.278;2023-08-21T13:58:14;29.90;99.90
6964;DHT22;3522;50.856;7.278;2023-08-21T14:00:40;30.10;99.90
6964;DHT22;3522;50.856;7.278;2023-08-21T14:03:07;30.00;99.90
6964;DHT22;3522;50.856;7.278;2023-08-21T14:05:33;29.80;99.90
6964;DHT22;3522;50.856;7.278;2023-08-21T14:08:00;29.40;99.90
6964;DHT22;3522;50.856;7.278;2023-08-21T14:10:28;29.30;99.90
6964;DHT22;3522;50.856;7.278;2023-08-21T14:12:55;29.30;99.90
6964;DHT22;3522;50.856;7.278;2023-08-21T14:15:22;29.30;99.90
6964;DHT22;3522;50.856;7.278;2023-08-21T14:17:49;29.50;99.90
6964;DHT22;3522;50.856;7.278;2023-08-21T14:20:15;29.70;99.90
6964;DHT22;3522;50.856;7.278;2023-08-21T14:22:42;29.90;99.90
6964;DHT22;3522;50.856;7.278;2023-08-21T14:25:09;30.10;99.90
6964;DHT22;3522;50.856;7.278;2023-08-21T14:27:37;30.40;99.90
6964;DHT22;3522;50.856;7.278;2023-08-21T14:30:04;30.40;99.90
6964;DHT22;3522;50.856;7.278;2023-08-21T14:32:31;30.20;99.90
6964;DHT22;3522;50.856;7.278;2023-08-21T14:34:57;30.00;99.90
6964;DHT22;3522;50.856;7.278;2023-08-21T14:37:24;29.90;99.90
6964;DHT22;3522;50.856;7.278;2023-08-21T14:39:51;29.90;99.90
6964;DHT22;3522;50.856;7.278;2023-08-21T14:42:17;29.90;99.90
6964;DHT22;3522;50.856;7.278;2023-08-21T14:44:45;29.80;99.90
6964;DHT22;3522;50.856;7.278;2023-08-21T14:47:12;29.80;99.90
6964;DHT22;3522;50.856;7.278;2023-08-21T14:49:38;29.80;99.90
6964;DHT22;3522;50.856;7.278;2023-08-21T14:52:07;29.70;99.90
6964;DHT22;3522;50.856;7.278;2023-08-21T14:54:34;29.60;99.90
6964;DHT22;3522;50.856;7.278;2023-08-21T14:57:00;29.70;99.90
6964;DHT22;3522;50.856;7.278;2023-08-21T14:59:27;29.70;99.90
6964;DHT22;3522;50.856;7.278;2023-08-21T15:01:55;29.70;99.90
6964;DHT22;3522;50.856;7.278;2023-08-21T15:04:22;29.50;99.90
6964;DHT22;3522;50.856;7.278;2023-08-21T15:06:48;29.20;99.90
6964;DHT22;3522;50.856;7.278;2023-08-21T15:09:15;29.10;99.90
6964;DHT22;3522;50.856;7.278;2023-08-21T15:11:41;29.00;99.90
6964;DHT22;3522;50.856;7.278;2023-08-21T15:14:09;29.00;99.90
6964;DHT22;3522;50.856;7.278;2023-08-21T15:16:36;28.70;99.90
6964;DHT22;3522;50.856;7.278;2023-08-21T15:19:04;28.50;99.90
6964;DHT22;3522;50.856;7.278;2023-08-21T15:21:30;28.50;99.90
6964;DHT22;3522;50.856;7.278;2023-08-21T15:23:57;28.30;99.90
6964;DHT22;3522;50.856;7.278;2023-08-21T15:26:25;28.30;99.90
6964;DHT22;3522;50.856;7.278;2023-08-21T15:28:51;28.20;99.90
6964;DHT22;3522;50.856;7.278;2023-08-21T15:31:18;28.30;99.90
6964;DHT22;3522;50.856;7.278;2023-08-21T15:33:44;28.30;99.90
6964;DHT22;3522;50.856;7.278;2023-08-21T15:36:14;28.20;99.90
6964;DHT22;3522;50.856;7.278;2023-08-21T15:38:40;28.20;99.90
6964;DHT22;3522;50.856;7.278;2023-08-21T15:41:07;28.30;99.90
6964;DHT22;3522;50.856;7.278;2023-08-21T15:43:34;28.30;99.90
6964;DHT22;3522;50.856;7.278;2023-08-21T15:46:02;28.40;99.90
6964;DHT22;3522;50.856;7.278;2023-08-21T15:48:29;28.40;99.90
6964;DHT22;3522;50.856;7.278;2023-08-21T15:50:56;28.40;99.90
6964;DHT22;3522;50.856;7.278;2023-08-21T15:53:24;28.40;99.90
6964;DHT22;3522;50.856;7.278;2023-08-21T15:55:50;28.40;99.90
6964;DHT22;3522;50.856;7.278;2023-08-21T15:58:17;28.50;99.90
6964;DHT22;3522;50.856;7.278;2023-08-21T16:00:44;28.50;99.90
6964;DHT22;3522;50.856;7.278;2023-08-21T16:03:10;28.40;99.90
6964;DHT22;3522;50.856;7.278;2023-08-21T16:05:37;28.40;99.90